Terminal Aerodrome Forecast
Issued by NWS

Home | Current Version | Previous Version | Text Only | Print | Product List | Glossary On
Versions: 1 2 3 4 5 6 7 8 9 10 11 12 13 14 15 16 17
000
FTUS41 KBTV 032320
TAFRUT
TAF
KRUT 032320Z 0400/0424 16012G22KT 3SM -SN BR OVC035
      TEMPO 0400/0401 2SM -SN BR
     FM040100 17012G22KT 2SM -SN BR OVC015
     FM040400 18010KT P6SM VCSH OVC015
      TEMPO 0404/0408 OVC008
     FM041200 26012G20KT P6SM SCT030 OVC200
      AMD LTD TO CLD VIS AND WIND=

USA.gov is the U.S. government's official web portal to all federal, state and local government web resources and services.